Stanford in the Vale, United Kingdom
Current Conditions -  °F | °C
As of 11:50 AM on Thursday 29 Jan 2015 (Local Time) from EGVN Reporting Station
Scattered Clouds Scattered Clouds  
Wind Chill: 34°   Ceiling: Unl
Heat Index: 41°   Visibility: 6mi
Dew Point: 32°   Wind: 13mph
Humidity: 70%   Direction: 250°WSW
Pressure: 29"   Gusts: NA
Location:  51.64°N, 1.51°W
Report Text: EGVN 291150Z 25011KT 9999 SCT033 05/M00 Q0982 BLU TEMPO -SHRA SCT022 WHT
Loading
Personal Weather Stations






























Interactive Weather Map New forecast layout! Learn more

10-Day Weather Forecast

Advertisements
Track Severe Weather on mobile